Time;durP1;ratioP1;P1;durP2;ratioP2;P2;SDS_P1;SDS_P2;PMS_P1;PMS_P2;Temp;Humidity;BMP_temperature;BMP_pressure;BME280_temperature;BME280_humidity;BME280_pressure;Samples;Min_cycle;Max_cycle;Signal;HPM_P1;HPM_P2
2023/08/03 00:00:18;;;;;;;8.40;0.95;;;20.30;99.90;;;;;;4996493;28;20447;-79
2023/08/03 00:02:45;;;;;;;4.88;1.23;;;20.20;99.90;;;;;;4996964;28;20038;-82
2023/08/03 00:05:11;;;;;;;3.92;1.10;;;20.20;99.90;;;;;;4978747;28;20062;-82
2023/08/03 00:07:36;;;;;;;7.53;1.10;;;20.30;99.90;;;;;;4996627;28;20038;-81
2023/08/03 00:10:02;;;;;;;6.45;1.20;;;20.30;99.90;;;;;;4995105;28;20030;-87
2023/08/03 00:12:28;;;;;;;5.28;1.30;;;20.30;99.90;;;;;;4996983;28;20065;-82
2023/08/03 00:14:54;;;;;;;3.35;0.73;;;20.30;99.90;;;;;;4996183;28;20093;-82
2023/08/03 00:17:21;;;;;;;5.95;0.70;;;20.30;99.90;;;;;;4996583;28;20034;-81
2023/08/03 00:19:46;;;;;;;5.75;1.02;;;20.30;99.90;;;;;;4996623;28;20226;-81
2023/08/03 00:22:12;;;;;;;5.07;0.82;;;20.30;99.90;;;;;;4995679;28;20158;-81
2023/08/03 00:24:37;;;;;;;8.93;1.08;;;20.20;99.90;;;;;;4997241;28;20057;-80
2023/08/03 00:27:03;;;;;;;3.90;0.95;;;20.20;99.90;;;;;;4995536;28;20033;-84
2023/08/03 00:29:29;;;;;;;4.13;0.90;;;20.30;99.90;;;;;;4979722;28;20026;-82
2023/08/03 00:31:54;;;;;;;6.75;1.30;;;20.20;99.90;;;;;;4996292;28;20026;-81
2023/08/03 00:34:20;;;;;;;3.65;0.77;;;20.30;99.90;;;;;;4979282;28;20614;-81
2023/08/03 00:36:45;;;;;;;7.55;0.77;;;20.30;99.90;;;;;;4979851;28;20450;-83
2023/08/03 00:39:11;;;;;;;5.30;0.82;;;20.30;99.90;;;;;;4996248;28;20033;-82
2023/08/03 00:41:37;;;;;;;5.57;0.70;;;20.30;99.90;;;;;;4995944;28;20093;-83
2023/08/03 00:44:02;;;;;;;3.58;0.80;;;20.30;99.90;;;;;;4995227;28;20056;-85
2023/08/03 00:46:28;;;;;;;5.55;0.60;;;20.30;99.90;;;;;;4996833;28;20101;-83
2023/08/03 00:48:54;;;;;;;4.97;0.75;;;20.30;99.90;;;;;;4995531;28;20060;-83
2023/08/03 00:51:19;;;;;;;6.47;1.05;;;20.30;99.90;;;;;;4995192;28;20089;-84
2023/08/03 00:53:46;;;;;;;5.35;0.50;;;20.30;99.90;;;;;;4995488;28;20030;-83
2023/08/03 00:56:16;;;;;;;4.38;0.55;;;20.40;99.90;;;;;;4978916;28;20029;-83
2023/08/03 00:58:42;;;;;;;9.00;1.17;;;20.40;99.90;;;;;;4978857;28;20030;-83
2023/08/03 01:01:08;;;;;;;4.57;0.90;;;20.40;99.90;;;;;;4978815;28;20026;-83
2023/08/03 01:03:33;;;;;;;5.78;1.00;;;20.40;99.90;;;;;;4995213;28;20176;-83
2023/08/03 01:05:59;;;;;;;5.65;0.88;;;20.30;99.90;;;;;;4996281;28;20043;-82
2023/08/03 01:08:25;;;;;;;6.20;0.93;;;20.40;99.90;;;;;;4978477;28;20031;-82
2023/08/03 01:10:52;;;;;;;4.72;0.77;;;20.30;99.90;;;;;;4978817;28;20022;-82
2023/08/03 01:13:18;;;;;;;5.53;0.68;;;20.40;99.90;;;;;;4978222;28;20058;-83
2023/08/03 01:15:44;;;;;;;3.80;0.90;;;20.30;99.90;;;;;;4979054;28;20128;-82
2023/08/03 01:18:10;;;;;;;3.17;0.60;;;20.40;99.90;;;;;;4994669;28;20031;-83
2023/08/03 01:20:37;;;;;;;3.03;0.70;;;20.40;99.90;;;;;;4996159;28;20404;-83
2023/08/03 01:23:06;;;;;;;5.22;0.65;;;20.30;99.90;;;;;;4978520;28;20027;-84
2023/08/03 01:25:33;;;;;;;9.02;1.17;;;20.40;99.90;;;;;;4978787;28;20022;-83
2023/08/03 01:27:59;;;;;;;4.45;0.80;;;20.30;99.90;;;;;;4995619;28;20045;-82
2023/08/03 01:30:25;;;;;;;5.38;1.33;;;20.40;99.90;;;;;;4977778;28;20185;-83
2023/08/03 01:32:51;;;;;;;5.15;0.80;;;20.30;99.90;;;;;;4977471;28;20030;-82
2023/08/03 01:35:16;;;;;;;5.65;0.80;;;20.30;99.90;;;;;;4978160;28;20026;-83
2023/08/03 01:37:42;;;;;;;7.97;0.60;;;20.30;99.90;;;;;;4995585;28;20081;-83
2023/08/03 01:40:10;;;;;;;7.80;0.90;;;20.30;99.90;;;;;;4993939;28;20030;-85
2023/08/03 01:42:37;;;;;;;7.13;1.20;;;20.30;99.90;;;;;;4978086;28;20057;-82
2023/08/03 01:45:06;;;;;;;4.03;0.88;;;20.30;99.90;;;;;;4995233;28;20108;-82
2023/08/03 01:47:32;;;;;;;4.68;0.88;;;20.30;99.90;;;;;;4977963;28;20030;-83
2023/08/03 01:49:58;;;;;;;4.65;0.80;;;20.30;99.90;;;;;;4978079;28;20030;-83
2023/08/03 01:52:24;;;;;;;5.13;0.88;;;20.20;99.90;;;;;;4993576;28;20033;-82
2023/08/03 01:54:49;;;;;;;6.30;0.90;;;20.20;99.90;;;;;;4978160;28;20522;-82
2023/08/03 01:57:17;;;;;;;5.85;0.73;;;20.20;99.90;;;;;;4978122;28;20483;-82
2023/08/03 01:59:43;;;;;;;4.53;0.60;;;20.20;99.90;;;;;;4978188;28;20477;-83
2023/08/03 02:02:09;;;;;;;6.25;0.70;;;20.20;99.90;;;;;;4977686;28;20026;-83
2023/08/03 02:04:34;;;;;;;3.17;0.60;;;20.20;99.90;;;;;;4994086;28;20363;-83
2023/08/03 02:07:15;;;;;;;5.78;0.75;;;20.20;99.90;;;;;;4995159;28;20058;-81
2023/08/03 02:09:40;;;;;;;3.38;1.00;;;20.20;99.90;;;;;;4978338;28;20026;-83
2023/08/03 02:12:06;;;;;;;4.25;0.47;;;20.20;99.90;;;;;;4993681;28;20024;-85
2023/08/03 02:14:32;;;;;;;4.28;0.55;;;20.10;99.90;;;;;;4994919;28;20117;-84
2023/08/03 02:16:57;;;;;;;3.85;0.32;;;20.10;99.90;;;;;;4993635;28;20113;-83
2023/08/03 02:19:23;;;;;;;2.70;0.40;;;20.10;99.90;;;;;;4993768;28;20030;-82
2023/08/03 02:21:48;;;;;;;3.30;0.52;;;20.00;99.90;;;;;;4978095;28;20032;-82
2023/08/03 02:24:14;;;;;;;3.58;0.43;;;20.00;99.90;;;;;;4993544;28;20060;-83
2023/08/03 02:26:40;;;;;;;4.72;0.43;;;19.80;99.90;;;;;;4995480;28;20026;-84
2023/08/03 02:29:05;;;;;;;2.28;0.43;;;19.60;99.90;;;;;;4977885;28;20041;-83
2023/08/03 02:31:31;;;;;;;2.42;0.40;;;19.60;99.90;;;;;;4993875;28;20030;-84
2023/08/03 02:33:56;;;;;;;2.00;0.38;;;19.50;99.90;;;;;;4977881;28;20368;-84
2023/08/03 02:36:22;;;;;;;2.58;0.40;;;19.30;99.90;;;;;;4994987;28;20050;-84
2023/08/03 02:38:47;;;;;;;0.55;0.10;;;19.20;99.90;;;;;;4977790;28;20026;-83
2023/08/03 02:41:13;;;;;;;2.40;0.15;;;19.20;99.90;;;;;;4977361;28;20030;-84
2023/08/03 02:43:38;;;;;;;3.63;0.30;;;19.10;99.90;;;;;;4976858;28;20050;-84
2023/08/03 02:46:04;;;;;;;2.15;0.30;;;19.10;99.90;;;;;;4993818;28;20069;-84
2023/08/03 02:48:29;;;;;;;3.58;0.60;;;19.00;99.90;;;;;;4977235;28;20037;-85
2023/08/03 02:50:55;;;;;;;2.67;0.30;;;19.00;99.90;;;;;;4994668;28;20022;-86
2023/08/03 02:53:21;;;;;;;3.70;0.68;;;19.00;99.90;;;;;;4993273;28;20382;-86
2023/08/03 02:55:46;;;;;;;3.47;0.40;;;19.00;99.90;;;;;;4994020;28;20117;-86
2023/08/03 02:58:12;;;;;;;1.60;0.30;;;19.00;99.90;;;;;;4993256;28;20030;-86
2023/08/03 03:00:37;;;;;;;1.73;0.40;;;18.90;99.90;;;;;;4977622;28;20022;-86
2023/08/03 03:03:03;;;;;;;4.28;0.40;;;18.90;99.90;;;;;;4993790;28;20026;-86
2023/08/03 03:05:29;;;;;;;3.15;0.45;;;18.90;99.90;;;;;;4993959;28;20027;-86
2023/08/03 03:07:54;;;;;;;1.02;0.22;;;18.90;99.90;;;;;;4993672;28;20470;-86
2023/08/03 03:10:20;;;;;;;6.57;0.40;;;18.80;99.90;;;;;;4993625;28;20050;-85
2023/08/03 03:12:46;;;;;;;0.98;0.20;;;18.80;99.90;;;;;;4993486;28;20156;-85
2023/08/03 03:15:11;;;;;;;3.38;0.40;;;18.80;99.90;;;;;;4993620;28;20034;-87
2023/08/03 03:17:38;;;;;;;2.35;0.35;;;18.80;99.90;;;;;;4993656;28;20030;-85
2023/08/03 03:20:05;;;;;;;2.92;0.40;;;18.80;99.90;;;;;;4994430;28;20026;-85
2023/08/03 03:22:31;;;;;;;5.93;0.57;;;18.80;99.90;;;;;;4993595;28;20026;-85
2023/08/03 03:24:56;;;;;;;3.45;0.57;;;18.70;99.90;;;;;;4994369;28;20037;-86
2023/08/03 03:27:22;;;;;;;3.83;1.17;;;18.70;99.90;;;;;;4976858;28;20542;-85
2023/08/03 03:29:47;;;;;;;3.42;0.50;;;18.70;99.90;;;;;;4977480;28;20032;-85
2023/08/03 03:32:13;;;;;;;4.80;0.65;;;18.70;99.90;;;;;;4994076;28;20106;-86
2023/08/03 03:34:38;;;;;;;4.30;0.60;;;18.70;99.90;;;;;;4993553;28;20018;-84
2023/08/03 03:37:04;;;;;;;2.63;0.55;;;18.70;99.90;;;;;;4993317;28;20076;-81
2023/08/03 03:39:30;;;;;;;4.22;0.70;;;18.70;99.90;;;;;;4993272;28;20026;-83
2023/08/03 03:41:55;;;;;;;4.13;0.50;;;18.70;99.90;;;;;;4977200;28;20390;-85
2023/08/03 03:44:21;;;;;;;2.60;0.52;;;18.70;99.90;;;;;;4992640;28;20132;-86
2023/08/03 03:46:46;;;;;;;1.85;0.40;;;18.70;99.90;;;;;;4993110;28;20038;-85
2023/08/03 03:49:12;;;;;;;3.97;0.68;;;18.80;99.90;;;;;;4982062;28;20034;-87
2023/08/03 03:51:37;;;;;;;2.97;0.57;;;18.80;99.90;;;;;;4993072;28;20427;-85
2023/08/03 03:54:03;;;;;;;3.05;0.47;;;18.80;99.90;;;;;;4993207;28;20030;-84
2023/08/03 03:56:28;;;;;;;2.30;0.40;;;18.80;99.90;;;;;;4996028;28;20077;-85
2023/08/03 03:58:54;;;;;;;3.92;0.43;;;18.90;99.90;;;;;;4996735;28;20398;-85
2023/08/03 04:01:19;;;;;;;5.65;0.88;;;18.90;99.90;;;;;;4997153;28;20026;-85
2023/08/03 04:03:45;;;;;;;5.32;0.40;;;18.90;99.90;;;;;;4997760;28;20077;-84
2023/08/03 04:06:11;;;;;;;4.60;0.52;;;18.90;99.90;;;;;;4996739;28;20032;-85
2023/08/03 04:08:36;;;;;;;2.35;0.30;;;18.90;99.90;;;;;;4996307;28;20120;-85
2023/08/03 04:11:02;;;;;;;2.88;0.50;;;18.90;99.90;;;;;;4996438;28;20042;-84
2023/08/03 04:13:28;;;;;;;1.85;0.43;;;18.90;99.90;;;;;;4995779;28;20041;-84
2023/08/03 04:15:53;;;;;;;5.75;0.50;;;18.90;99.90;;;;;;4996229;28;20022;-85
2023/08/03 04:18:19;;;;;;;2.22;0.68;;;18.90;99.90;;;;;;4996973;28;20109;-85
2023/08/03 04:20:45;;;;;;;2.15;0.32;;;18.90;99.90;;;;;;4980238;28;20382;-84
2023/08/03 04:23:10;;;;;;;2.67;0.40;;;18.80;99.90;;;;;;4997249;28;20097;-84
2023/08/03 04:25:36;;;;;;;2.42;0.60;;;18.70;99.90;;;;;;4995835;28;20022;-85
2023/08/03 04:28:01;;;;;;;2.83;0.32;;;18.60;99.90;;;;;;4996294;28;20037;-84
2023/08/03 04:30:27;;;;;;;1.83;0.47;;;18.50;99.90;;;;;;4995482;28;20455;-84
2023/08/03 04:32:53;;;;;;;1.70;0.20;;;18.50;99.90;;;;;;4996209;28;20027;-83
2023/08/03 04:35:18;;;;;;;1.17;0.20;;;18.40;99.90;;;;;;4995479;28;20023;-84
2023/08/03 04:37:44;;;;;;;2.67;0.60;;;18.40;99.90;;;;;;4996042;28;20083;-83
2023/08/03 04:40:10;;;;;;;3.63;0.20;;;18.40;99.90;;;;;;4995911;28;20045;-84
2023/08/03 04:42:35;;;;;;;2.63;0.50;;;18.30;99.90;;;;;;4995495;28;20057;-84
2023/08/03 04:45:01;;;;;;;3.05;0.43;;;18.30;99.90;;;;;;4996909;28;20065;-85
2023/08/03 04:47:26;;;;;;;3.20;0.80;;;18.30;99.90;;;;;;4995281;28;20037;-85
2023/08/03 04:49:52;;;;;;;3.65;0.77;;;18.30;99.90;;;;;;4979373;28;20459;-86
2023/08/03 04:52:17;;;;;;;2.80;0.50;;;18.30;99.90;;;;;;4995366;28;20024;-85
2023/08/03 04:54:43;;;;;;;5.15;0.50;;;18.30;99.90;;;;;;4996594;28;20170;-85
2023/08/03 04:57:08;;;;;;;1.73;0.35;;;18.30;99.90;;;;;;4996848;28;20027;-86
2023/08/03 04:59:34;;;;;;;1.88;0.40;;;18.30;99.90;;;;;;4996486;28;20050;-86
2023/08/03 05:02:00;;;;;;;4.13;0.40;;;18.30;99.90;;;;;;4995526;28;20022;-86
2023/08/03 05:04:25;;;;;;;1.63;0.40;;;18.40;99.90;;;;;;4995120;28;20033;-86
2023/08/03 05:06:52;;;;;;;0.88;0.30;;;18.40;99.90;;;;;;4996592;28;20022;-88
2023/08/03 05:09:17;;;;;;;2.10;0.30;;;18.40;99.90;;;;;;4995167;28;20162;-87
2023/08/03 05:11:43;;;;;;;3.45;0.63;;;18.50;99.90;;;;;;4996145;28;20411;-87
2023/08/03 05:14:08;;;;;;;3.65;0.65;;;18.50;99.90;;;;;;4996513;28;20418;-85
2023/08/03 05:16:34;;;;;;;4.00;0.47;;;18.50;99.90;;;;;;4978836;28;20033;-84
2023/08/03 05:19:00;;;;;;;2.70;0.60;;;18.50;99.90;;;;;;4979050;28;20490;-85
2023/08/03 05:21:25;;;;;;;2.72;0.52;;;18.50;99.90;;;;;;4994956;28;20112;-85
2023/08/03 05:23:51;;;;;;;3.55;0.50;;;18.60;99.90;;;;;;4995118;28;20038;-85
2023/08/03 05:26:17;;;;;;;2.42;0.60;;;18.60;99.90;;;;;;4995251;28;20471;-88
2023/08/03 05:28:42;;;;;;;1.63;0.30;;;18.70;99.90;;;;;;4995151;28;20150;-84
2023/08/03 05:31:08;;;;;;;5.35;0.40;;;18.60;99.90;;;;;;4994991;28;20026;-85
2023/08/03 05:33:35;;;;;;;3.20;0.40;;;18.60;99.90;;;;;;4994306;28;20058;-86
2023/08/03 05:36:01;;;;;;;2.33;0.20;;;18.70;99.90;;;;;;4995118;28;20029;-85
2023/08/03 05:38:26;;;;;;;1.65;0.40;;;18.70;99.90;;;;;;4994489;28;20435;-87
2023/08/03 05:40:52;;;;;;;0.30;0.20;;;18.70;99.90;;;;;;4995826;28;20490;-85
2023/08/03 05:43:18;;;;;;;3.85;0.30;;;18.70;99.90;;;;;;4978172;28;20061;-87
2023/08/03 05:45:47;;;;;;;4.22;0.70;;;18.70;99.90;;;;;;4995415;28;20391;-85
2023/08/03 05:48:18;;;;;;;4.40;0.47;;;18.70;99.90;;;;;;4994620;28;20042;-85
2023/08/03 05:50:49;;;;;;;3.15;0.47;;;18.60;99.90;;;;;;4978507;28;20053;-85
2023/08/03 05:53:15;;;;;;;4.03;0.57;;;18.60;99.90;;;;;;4994424;28;20035;-84
2023/08/03 05:55:42;;;;;;;2.45;0.80;;;18.60;99.90;;;;;;4995215;28;20029;-84
2023/08/03 05:58:13;;;;;;;3.33;0.55;;;18.60;99.90;;;;;;4995460;28;20161;-85
2023/08/03 06:00:49;;;;;;;3.13;0.50;;;18.50;99.90;;;;;;4993846;28;20086;-84
2023/08/03 06:03:17;;;;;;;4.40;0.50;;;18.40;99.90;;;;;;4994289;28;20034;-84
2023/08/03 06:05:43;;;;;;;3.95;0.52;;;18.40;99.90;;;;;;4993707;28;20040;-84
2023/08/03 06:08:24;;;;;;;2.58;0.50;;;18.40;99.90;;;;;;4995167;28;20471;-84
2023/08/03 06:10:51;;;;;;;3.30;0.47;;;18.40;99.90;;;;;;4978205;28;20022;-84
2023/08/03 06:13:19;;;;;;;3.35;0.70;;;18.30;99.90;;;;;;4994980;28;20031;-83
2023/08/03 06:15:46;;;;;;;2.90;0.60;;;18.40;99.90;;;;;;4995317;28;20031;-84
2023/08/03 06:18:17;;;;;;;4.47;0.40;;;18.40;99.90;;;;;;4993840;28;20037;-85
2023/08/03 06:20:45;;;;;;;1.33;0.30;;;18.40;99.90;;;;;;4993721;28;20057;-85
2023/08/03 06:23:25;;;;;;;2.70;0.50;;;18.40;99.90;;;;;;4977888;28;20062;-85
2023/08/03 06:25:53;;;;;;;1.33;0.30;;;18.40;99.90;;;;;;4994086;28;20050;-85
2023/08/03 06:28:21;;;;;;;1.35;0.30;;;18.40;99.90;;;;;;4993886;28;20121;-85
2023/08/03 06:30:48;;;;;;;1.52;0.50;;;18.30;99.90;;;;;;4993902;28;20380;-85
2023/08/03 06:33:19;;;;;;;3.20;0.40;;;18.40;99.90;;;;;;4995002;28;20097;-84
2023/08/03 06:35:46;;;;;;;2.83;0.33;;;18.40;99.90;;;;;;4993537;28;20041;-85
2023/08/03 06:38:18;;;;;;;2.78;0.40;;;18.40;99.90;;;;;;4994974;28;20030;-85
2023/08/03 06:40:46;;;;;;;1.15;0.40;;;18.40;99.90;;;;;;4993188;28;20030;-85
2023/08/03 06:43:13;;;;;;;2.58;0.20;;;18.40;99.90;;;;;;4993452;28;20123;-85
2023/08/03 06:45:40;;;;;;;0.93;0.20;;;18.40;99.90;;;;;;4993348;28;20022;-85
2023/08/03 06:48:06;;;;;;;6.47;0.43;;;18.40;99.90;;;;;;4977495;28;20482;-85
2023/08/03 06:50:32;;;;;;;1.75;0.30;;;18.40;99.90;;;;;;4994237;28;20100;-85
2023/08/03 06:52:59;;;;;;;2.15;0.30;;;18.40;99.90;;;;;;4993795;28;20030;-85
2023/08/03 06:55:25;;;;;;;2.33;0.35;;;18.50;99.90;;;;;;4993237;28;20497;-87
2023/08/03 06:57:51;;;;;;;2.08;0.43;;;18.50;99.90;;;;;;4994429;28;20038;-85
2023/08/03 07:00:17;;;;;;;0.80;0.30;;;18.50;99.90;;;;;;4993582;28;20023;-85
2023/08/03 07:02:44;;;;;;;3.50;0.47;;;18.60;99.90;;;;;;4994435;28;20031;-85
2023/08/03 07:05:10;;;;;;;4.50;0.40;;;18.60;99.90;;;;;;4993959;28;20022;-85
2023/08/03 07:07:36;;;;;;;2.03;0.52;;;18.60;99.90;;;;;;4994467;28;20045;-85
2023/08/03 07:10:02;;;;;;;9.55;0.75;;;18.60;99.90;;;;;;4993437;28;20440;-85
2023/08/03 07:12:27;;;;;;;5.10;0.75;;;18.60;99.90;;;;;;4994021;28;20027;-87
2023/08/03 07:14:54;;;;;;;3.20;0.50;;;18.60;99.90;;;;;;4993612;28;20103;-86
2023/08/03 07:17:20;;;;;;;2.17;0.60;;;18.60;99.90;;;;;;4994568;28;20023;-86
2023/08/03 07:19:51;;;;;;;2.78;0.30;;;18.60;99.90;;;;;;4994347;28;20474;-86
2023/08/03 07:22:17;;;;;;;;;;;18.70;99.90;;;;;;4993964;28;20022;-85
2023/08/03 07:24:43;;;;;;;3.72;0.60;;;18.70;99.90;;;;;;4994065;28;19906;-86
2023/08/03 07:27:09;;;;;;;4.55;0.73;;;18.70;99.90;;;;;;4983405;28;20095;-86
2023/08/03 07:29:35;;;;;;;2.80;0.52;;;18.70;99.90;;;;;;4994025;28;20030;-86
2023/08/03 07:32:01;;;;;;;2.90;0.57;;;18.80;99.90;;;;;;4998022;28;20482;-87
2023/08/03 07:34:26;;;;;;;3.95;0.60;;;18.80;99.90;;;;;;4995232;28;20026;-86
2023/08/03 07:36:56;;;;;;;0.85;0.32;;;18.80;99.90;;;;;;4998371;28;20037;-86
2023/08/03 07:39:22;;;;;;;6.03;0.55;;;18.80;99.90;;;;;;4978315;28;20037;-87
2023/08/03 07:41:48;;;;;;;6.57;0.40;;;18.90;99.90;;;;;;4996419;28;20102;-84
2023/08/03 07:44:18;;;;;;;3.78;0.40;;;18.90;99.90;;;;;;4996398;28;20129;-91
2023/08/03 07:46:45;;;;;;;1.05;0.35;;;18.90;99.90;;;;;;4996175;28;20117;-89
2023/08/03 07:49:10;;;;;;;2.08;0.73;;;18.90;99.90;;;;;;4996490;28;20038;-84
2023/08/03 07:51:36;;;;;;;5.10;0.55;;;19.00;99.90;;;;;;4996383;28;20077;-85
2023/08/03 07:54:02;;;;;;;4.10;0.50;;;18.90;99.90;;;;;;4996914;28;20089;-78
2023/08/03 07:56:27;;;;;;;3.20;0.65;;;18.90;99.90;;;;;;4988710;28;20138;-88
2023/08/03 07:58:53;;;;;;;5.65;0.60;;;19.00;99.90;;;;;;4991373;28;20042;-84
2023/08/03 08:01:20;;;;;;;4.22;0.60;;;18.90;99.90;;;;;;4993006;28;20053;-83
2023/08/03 08:03:46;;;;;;;3.42;0.47;;;18.80;99.90;;;;;;4973785;28;20705;-85
2023/08/03 08:06:17;;;;;;;2.75;0.73;;;18.80;99.90;;;;;;4995971;28;20038;-86
2023/08/03 08:08:43;;;;;;;4.03;0.60;;;18.70;99.90;;;;;;4988676;28;20035;-82
2023/08/03 08:11:09;;;;;;;2.50;0.90;;;18.70;99.90;;;;;;4960340;28;20033;-83
2023/08/03 08:13:35;;;;;;;1.77;0.40;;;18.70;99.90;;;;;;4975728;28;20042;-83
2023/08/03 08:16:02;;;;;;;1.48;0.30;;;18.60;99.90;;;;;;4977387;28;20464;-82
2023/08/03 08:18:29;;;;;;;1.65;0.47;;;18.60;99.90;;;;;;4988339;28;20042;-84
2023/08/03 08:20:56;;;;;;;3.80;0.50;;;18.50;99.90;;;;;;4977808;28;20117;-83
2023/08/03 08:23:22;;;;;;;2.63;0.40;;;18.50;99.90;;;;;;4990039;28;20050;-84
2023/08/03 08:25:47;;;;;;;5.40;0.60;;;18.50;99.90;;;;;;4989992;28;20587;-83
2023/08/03 08:28:13;;;;;;;1.58;0.40;;;18.40;99.90;;;;;;4995178;28;20038;-83
2023/08/03 08:30:38;;;;;;;3.30;0.60;;;18.40;99.90;;;;;;4996029;28;20023;-83
2023/08/03 08:33:04;;;;;;;5.57;0.80;;;18.50;99.90;;;;;;4996003;28;20081;-83
2023/08/03 08:35:31;;;;;;;4.18;0.50;;;18.40;99.90;;;;;;4993679;28;20085;-83
2023/08/03 08:37:59;;;;;;;1.73;0.20;;;18.50;99.90;;;;;;4960263;28;20041;-83
2023/08/03 08:40:27;;;;;;;3.03;0.60;;;18.50;99.90;;;;;;4995627;28;20034;-84
2023/08/03 08:42:55;;;;;;;3.30;0.50;;;18.40;99.90;;;;;;4993597;28;20034;-84
2023/08/03 08:45:20;;;;;;;6.40;0.80;;;18.40;99.90;;;;;;4967506;28;20026;-84
2023/08/03 08:47:47;;;;;;;1.67;0.40;;;18.30;99.90;;;;;;4958173;28;20186;-84
2023/08/03 08:50:14;;;;;;;4.22;0.60;;;18.30;99.90;;;;;;4993990;28;20029;-85
2023/08/03 08:52:44;;;;;;;2.75;0.70;;;18.30;99.90;;;;;;4960206;28;20093;-88
2023/08/03 08:55:21;;;;;;;2.38;0.50;;;18.40;99.90;;;;;;4964113;28;20038;-86
2023/08/03 08:57:47;;;;;;;2.72;0.45;;;18.40;99.90;;;;;;4979021;28;20623;-84
2023/08/03 09:00:14;;;;;;;2.78;0.50;;;18.40;99.90;;;;;;4992422;28;20023;-84
2023/08/03 09:02:39;;;;;;;8.40;3.22;;;18.40;99.90;;;;;;4983096;28;20460;-85
2023/08/03 09:05:17;;;;;;;3.35;0.68;;;18.40;99.90;;;;;;4979209;28;20030;-84
2023/08/03 09:07:42;;;;;;;2.72;0.57;;;18.40;99.90;;;;;;4963013;28;20031;-85
2023/08/03 09:10:09;;;;;;;2.45;0.60;;;18.30;99.90;;;;;;4976382;28;20027;-84
2023/08/03 09:12:37;;;;;;;3.67;0.80;;;18.30;99.90;;;;;;4971025;28;20026;-85
2023/08/03 09:15:03;;;;;;;1.83;0.50;;;18.30;99.90;;;;;;4995041;28;20037;-85
2023/08/03 09:17:29;;;;;;;2.75;0.70;;;18.30;99.90;;;;;;4986405;28;20027;-84
2023/08/03 09:19:55;;;;;;;3.72;0.68;;;18.40;99.90;;;;;;4978169;28;20043;-84
2023/08/03 09:22:22;;;;;;;4.72;0.52;;;18.40;99.90;;;;;;4973094;28;20033;-83
2023/08/03 09:25:01;;;;;;;3.67;0.88;;;18.40;99.90;;;;;;4989055;28;20030;-87
2023/08/03 09:27:27;;;;;;;1.05;0.30;;;18.40;99.90;;;;;;4991052;28;20018;-85
2023/08/03 09:29:59;;;;;;;1.95;0.60;;;18.40;99.90;;;;;;4994365;28;20364;-87
2023/08/03 09:32:31;;;;;;;3.33;0.50;;;18.40;99.90;;;;;;4979564;28;20026;-86
2023/08/03 09:34:58;;;;;;;3.58;0.50;;;18.40;99.90;;;;;;4993296;28;20467;-85
2023/08/03 09:37:34;;;;;;;4.68;0.38;;;18.50;99.90;;;;;;4982831;28;20054;-85
2023/08/03 09:40:04;;;;;;;2.28;0.50;;;18.50;99.90;;;;;;4976186;28;20077;-84
2023/08/03 09:42:33;;;;;;;2.63;0.50;;;18.60;99.90;;;;;;4989900;28;20022;-83
2023/08/03 09:45:01;;;;;;;3.13;0.60;;;18.50;99.90;;;;;;4993620;28;20054;-84
2023/08/03 09:47:27;;;;;;;2.35;0.47;;;18.50;99.90;;;;;;4980673;28;20027;-84
2023/08/03 09:49:53;;;;;;;3.40;0.80;;;18.30;99.90;;;;;;4975380;28;20027;-85
2023/08/03 09:52:24;;;;;;;2.65;0.40;;;18.10;99.90;;;;;;4974294;28;20050;-87
2023/08/03 09:55:06;;;;;;;3.65;0.60;;;18.00;99.90;;;;;;4980835;28;20034;-88
2023/08/03 09:57:37;;;;;;;2.75;0.55;;;17.80;99.90;;;;;;4989890;28;20035;-84
2023/08/03 10:00:07;;;;;;;3.25;0.60;;;17.70;99.90;;;;;;4990636;28;20026;-83
2023/08/03 10:02:51;;;;;;;2.25;0.43;;;17.60;99.90;;;;;;4962140;28;20118;-84
2023/08/03 10:05:18;;;;;;;2.50;0.40;;;17.50;99.90;;;;;;4986065;28;20022;-83
2023/08/03 10:07:59;;;;;;;2.47;0.40;;;17.40;99.90;;;;;;4962289;28;20240;-84
2023/08/03 10:10:29;;;;;;;2.78;0.50;;;17.40;99.90;;;;;;4977708;28;20173;-88
2023/08/03 10:13:02;;;;;;;3.78;0.70;;;17.40;99.90;;;;;;4984714;28;20047;-84
2023/08/03 10:15:28;;;;;;;3.35;0.60;;;17.30;99.90;;;;;;4975659;28;20033;-85
2023/08/03 10:17:54;;;;;;;2.22;0.45;;;17.30;99.90;;;;;;4988285;28;20034;-85
2023/08/03 10:20:21;;;;;;;1.17;0.50;;;17.40;99.90;;;;;;4993676;28;20069;-84
2023/08/03 10:23:25;;;;;;;2.13;0.50;;;17.30;99.90;;;;;;4993359;28;20106;-84
2023/08/03 10:25:53;;;;;;;4.20;0.50;;;17.40;99.90;;;;;;4933827;29;20039;-84
2023/08/03 10:28:20;;;;;;;2.72;0.43;;;17.50;99.90;;;;;;4915806;29;20035;-84
2023/08/03 10:31:10;;;;;;;2.78;0.50;;;17.70;99.90;;;;;;4914995;29;20051;-83
2023/08/03 10:33:51;;;;;;;3.00;0.50;;;17.80;99.90;;;;;;4915379;29;20036;-86
2023/08/03 10:38:54;;;;;;;1.90;0.40;;;18.10;99.90;;;;;;4934058;29;20107;-90
2023/08/03 10:41:25;;;;;;;2.80;0.50;;;18.30;99.90;;;;;;4906859;29;20024;-89
2023/08/03 10:44:05;;;;;;;2.45;0.68;;;18.50;99.90;;;;;;4916354;29;20144;-88
2023/08/03 10:46:47;;;;;;;2.33;0.30;;;18.70;99.90;;;;;;4919520;29;20493;-87
2023/08/03 10:49:25;;;;;;;;;;;18.80;99.90;;;;;;4924551;29;20417;-88
2023/08/03 10:51:55;;;;;;;1.17;0.38;;;18.90;99.90;;;;;;4925538;29;19903;-89
2023/08/03 10:54:28;;;;;;;1.23;0.40;;;19.00;99.90;;;;;;4919463;29;20028;-89
2023/08/03 10:57:08;;;;;;;1.17;0.32;;;19.20;99.90;;;;;;4959738;28;20105;-91
2023/08/03 10:59:43;;;;;;;2.08;0.60;;;19.40;99.90;;;;;;4973989;28;20027;-86
2023/08/03 11:02:30;;;;;;;2.40;0.38;;;19.50;99.90;;;;;;4970814;28;20515;-87
2023/08/03 11:04:58;;;;;;;2.55;0.40;;;19.70;99.90;;;;;;4968230;28;20027;-88
2023/08/03 11:07:33;;;;;;;1.48;0.52;;;19.80;99.90;;;;;;4970483;28;20037;-90
2023/08/03 11:10:04;;;;;;;3.38;0.38;;;19.90;99.90;;;;;;4978029;28;20031;-90
2023/08/03 11:12:31;;;;;;;4.40;0.50;;;19.80;99.90;;;;;;4979732;28;20086;-86
2023/08/03 11:14:59;;;;;;;3.17;0.60;;;19.80;99.90;;;;;;4972149;28;20042;-85
2023/08/03 11:17:30;;;;;;;2.28;0.40;;;19.70;99.90;;;;;;4983460;28;20035;-85
2023/08/03 11:19:57;;;;;;;4.28;0.60;;;19.90;99.90;;;;;;4990718;28;20027;-86
2023/08/03 11:22:24;;;;;;;3.05;0.50;;;19.90;99.90;;;;;;4985192;28;20063;-81
2023/08/03 11:24:56;;;;;;;5.78;0.55;;;20.00;99.90;;;;;;4974991;28;20038;-85
2023/08/03 11:27:22;;;;;;;3.90;0.30;;;20.00;99.90;;;;;;4977688;28;20483;-86
2023/08/03 11:29:48;;;;;;;1.48;0.40;;;20.00;99.90;;;;;;4974124;28;20050;-85
2023/08/03 11:32:27;;;;;;;1.90;0.38;;;20.00;99.90;;;;;;4987059;28;20227;-86
2023/08/03 11:35:04;;;;;;;1.23;0.32;;;20.20;99.90;;;;;;4991503;28;20125;-86
2023/08/03 11:37:31;;;;;;;2.45;0.50;;;20.20;99.90;;;;;;4980726;28;20122;-88
2023/08/03 11:39:58;;;;;;;0.60;0.32;;;20.30;99.90;;;;;;4972993;28;20031;-85
2023/08/03 11:42:24;;;;;;;1.00;0.28;;;20.20;99.90;;;;;;4992663;28;20031;-84
2023/08/03 11:44:50;;;;;;;1.33;0.50;;;20.20;99.90;;;;;;4976309;28;20059;-86
2023/08/03 11:47:15;;;;;;;2.15;0.25;;;20.20;99.90;;;;;;4970339;28;20170;-86
2023/08/03 11:49:41;;;;;;;3.15;0.20;;;20.30;99.90;;;;;;4987092;28;20031;-85
2023/08/03 11:52:07;;;;;;;1.88;0.20;;;20.30;99.90;;;;;;4992575;28;20043;-85
2023/08/03 11:54:34;;;;;;;2.15;0.35;;;20.30;99.90;;;;;;4977404;28;20027;-85
2023/08/03 12:00:03;;;;;;;0.93;0.15;;;20.70;99.90;;;;;;4933523;29;20500;-87
2023/08/03 12:02:38;;;;;;;2.92;0.30;;;20.90;99.90;;;;;;4960279;28;20035;-86
2023/08/03 12:05:05;;;;;;;0.80;0.20;;;20.90;99.90;;;;;;4979399;28;20041;-85
2023/08/03 12:07:30;;;;;;;0.85;0.13;;;20.90;99.90;;;;;;4976842;28;20023;-85
2023/08/03 12:09:56;;;;;;;2.15;0.20;;;20.80;99.90;;;;;;4975263;28;20030;-84
2023/08/03 12:12:22;;;;;;;0.65;0.20;;;20.90;99.90;;;;;;4972254;28;20033;-84
2023/08/03 12:14:47;;;;;;;0.88;0.20;;;20.90;99.90;;;;;;4980561;28;20058;-84
2023/08/03 12:17:13;;;;;;;3.22;0.40;;;21.00;99.90;;;;;;4974374;28;20109;-85
2023/08/03 12:19:39;;;;;;;2.10;0.30;;;21.20;99.90;;;;;;4989367;28;20027;-84
2023/08/03 12:22:05;;;;;;;0.98;0.28;;;21.10;99.90;;;;;;4972989;28;20034;-85
2023/08/03 12:24:31;;;;;;;2.22;0.30;;;21.20;99.90;;;;;;4975116;28;20023;-85
2023/08/03 12:26:56;;;;;;;1.58;0.25;;;21.30;99.90;;;;;;4982513;28;20098;-85
2023/08/03 12:29:22;;;;;;;0.80;0.17;;;21.40;99.90;;;;;;4976870;28;20114;-86
2023/08/03 12:31:48;;;;;;;2.30;0.20;;;21.50;99.90;;;;;;4990305;28;20034;-84
2023/08/03 12:34:14;;;;;;;1.27;0.20;;;21.50;99.90;;;;;;4974992;28;20038;-85
2023/08/03 12:36:39;;;;;;;1.95;0.20;;;21.60;99.90;;;;;;4989385;28;20027;-86
2023/08/03 12:39:05;;;;;;;0.30;0.10;;;21.60;99.90;;;;;;4968174;28;20073;-87
2023/08/03 12:41:32;;;;;;;0.40;0.10;;;21.60;99.90;;;;;;4987124;28;20119;-86
2023/08/03 12:43:57;;;;;;;1.10;0.17;;;21.60;99.90;;;;;;4977025;28;20086;-79
2023/08/03 12:46:24;;;;;;;3.35;0.30;;;21.60;99.90;;;;;;4987636;28;20082;-79
2023/08/03 12:48:50;;;;;;;0.85;0.10;;;21.70;99.90;;;;;;4984343;28;20077;-80
2023/08/03 12:51:17;;;;;;;0.45;0.10;;;21.70;99.90;;;;;;4978296;28;20054;-81
2023/08/03 12:53:46;;;;;;;0.38;0.20;;;21.80;99.90;;;;;;4991578;28;20428;-91